Time;durP1;ratioP1;P1;durP2;ratioP2;P2;SDS_P1;SDS_P2;PMS_P1;PMS_P2;Temp;Humidity;BMP_temperature;BMP_pressure;BME280_temperature;BME280_humidity;BME280_pressure;Samples;Min_cycle;Max_cycle;Signal;HPM_P1;HPM_P2
2022/05/24 07:03:47;;;;;;;5.72;3.33;;;13.50;85.50;;;;;;5065886;28;20913;-62
2022/05/24 07:06:15;;;;;;;7.50;3.25;;;13.40;88.10;;;;;;5065784;28;20032;-63
2022/05/24 07:08:42;;;;;;;9.73;4.03;;;13.50;89.00;;;;;;5064420;28;20132;-65
2022/05/24 07:11:08;;;;;;;10.32;4.35;;;13.60;88.20;;;;;;5064623;28;20132;-64
2022/05/24 07:13:34;;;;;;;4.55;3.47;;;13.70;86.50;;;;;;5066194;28;20059;-64
2022/05/24 07:16:00;;;;;;;6.28;4.05;;;13.80;86.50;;;;;;5065807;28;20028;-64
2022/05/24 07:18:26;;;;;;;4.60;3.03;;;13.90;86.00;;;;;;5051421;28;20029;-65
2022/05/24 07:20:52;;;;;;;7.53;3.15;;;14.00;85.10;;;;;;5044912;28;20059;-63
2022/05/24 07:23:20;;;;;;;5.68;4.05;;;14.20;84.30;;;;;;5044559;28;20061;-63
2022/05/24 07:25:47;;;;;;;4.78;3.33;;;14.30;83.80;;;;;;5045712;28;20115;-63
2022/05/24 07:28:18;;;;;;;3.90;3.03;;;14.50;83.90;;;;;;5045428;28;20483;-63
2022/05/24 07:31:12;;;;;;;3.20;2.90;;;14.70;83.30;;;;;;5086338;28;20132;-63
2022/05/24 07:33:38;;;;;;;4.13;2.47;;;14.80;82.90;;;;;;5086532;28;20025;-63
2022/05/24 07:36:06;;;;;;;3.67;3.13;;;14.80;82.10;;;;;;5084631;28;20035;-62
2022/05/24 07:48:13;;;;;;;3.92;2.58;;;14.90;79.80;;;;;;5092236;28;20448;-63
2022/05/24 07:50:40;;;;;;;6.13;3.53;;;15.00;79.50;;;;;;5106143;28;20395;-63
2022/05/24 07:53:06;;;;;;;4.03;3.15;;;15.10;79.30;;;;;;5106533;28;20032;-63
2022/05/24 07:55:32;;;;;;;4.28;3.47;;;15.20;78.30;;;;;;5105600;28;20387;-63
2022/05/24 07:58:00;;;;;;;3.28;2.85;;;15.20;78.50;;;;;;5101426;28;20036;-65
2022/05/24 08:00:27;;;;;;;3.00;2.42;;;15.20;78.30;;;;;;5086185;28;20089;-64
2022/05/24 08:02:53;;;;;;;4.60;2.28;;;15.20;78.60;;;;;;5105483;28;20027;-65
2022/05/24 08:05:20;;;;;;;3.03;2.22;;;15.20;78.60;;;;;;5095817;28;20028;-65
2022/05/24 08:07:46;;;;;;;2.25;1.83;;;15.40;78.20;;;;;;5103280;28;20024;-65
2022/05/24 08:10:13;;;;;;;4.25;2.05;;;15.50;78.00;;;;;;5093681;28;20031;-64
2022/05/24 08:12:39;;;;;;;1.80;1.70;;;15.70;76.80;;;;;;5088993;28;20165;-64
2022/05/24 08:15:05;;;;;;;2.03;1.83;;;15.80;75.00;;;;;;5087842;28;20024;-65
2022/05/24 08:17:31;;;;;;;7.18;2.03;;;15.80;74.50;;;;;;5111336;28;20019;-65
2022/05/24 08:21:05;;;;;;;1.50;1.40;;;15.70;72.60;;;;;;5106712;27;20108;-64
2022/05/24 08:23:32;;;;;;;1.67;1.58;;;15.70;72.70;;;;;;5106327;28;20443;-63
2022/05/24 08:25:58;;;;;;;2.55;1.67;;;15.70;72.90;;;;;;5072727;28;20046;-63
2022/05/24 08:28:24;;;;;;;3.58;2.10;;;15.70;72.50;;;;;;5087595;28;20035;-63
2022/05/24 08:30:50;;;;;;;4.53;2.47;;;15.70;71.90;;;;;;5077018;28;20028;-63
2022/05/24 08:33:17;;;;;;;2.40;2.15;;;15.60;72.30;;;;;;5081059;28;20112;-65
2022/05/24 08:35:44;;;;;;;3.45;2.03;;;15.70;71.80;;;;;;5074944;28;20035;-65
2022/05/24 08:38:12;;;;;;;2.50;1.77;;;15.80;71.20;;;;;;5084148;28;20541;-64
2022/05/24 08:40:39;;;;;;;1.20;1.10;;;15.90;71.90;;;;;;5079918;28;20039;-65
2022/05/24 08:43:08;;;;;;;1.20;1.02;;;16.10;72.00;;;;;;5085954;28;20494;-65
2022/05/24 08:48:38;;;;;;;1.60;1.13;;;16.20;69.20;;;;;;5072381;28;20040;-64
2022/05/24 08:51:21;;;;;;;3.80;1.05;;;16.20;68.90;;;;;;5088874;28;20074;-65
2022/05/24 08:54:31;;;;;;;1.08;0.98;;;16.40;68.60;;;;;;5076975;28;20498;-64
2022/05/24 08:57:01;;;;;;;1.65;1.30;;;16.40;69.30;;;;;;5091992;28;20370;-65
2022/05/24 09:03:38;;;;;;;3.20;1.42;;;16.00;67.30;;;;;;5033075;27;1978752;-66
2022/05/24 11:42:55;;;;;;;0.40;0.40;;;15.10;73.90;;;;;;5126510;27;20386;-63
2022/05/24 11:46:32;;;;;;;0.50;0.50;;;15.00;76.10;;;;;;5124541;27;20112;-63
